CheckWX is a tool to help pilots better visualize weather data.  It is not intended as a substitute for an official pre-flight weather briefing.

01:02:22 UTC

KORB METAR
Orr Regional Airport
Orr, Minnesota, USA
Current

8 mins ago

KORB 170054Z AUTO 18010G16KT 10SM BKN110 04/M03 A2986 RMK AO2
Observed
Nov-17 @ 00:54 UTC
Wind
  • 180° at 10 KTS
  • Gusting to 16 KTS
Visibility
10 SM
Flight Rules
VFR
Cloud Levels
  • Broken at 11,000' AGL
Temperature
C / 39°F
Dewpoint
-3°C / 27°F
Humidity
61%
Altimeter
29.86" Hg
Pressure
1011.22 hPa
Previous

28 mins ago

KORB 170034Z AUTO 18010G15KT 10SM SCT120 04/M03 A2986 RMK AO2
Observed
Nov-17 @ 00:34 UTC
Wind
  • 180° at 10 KTS
  • Gusting to 15 KTS
Visibility
10 SM
Flight Rules
VFR
Cloud Levels
  • Scattered at 12,000' AGL
Temperature
C / 39°F
Dewpoint
-3°C / 27°F
Humidity
61%
Altimeter
29.86" Hg
Pressure
1011.22 hPa
Previous

46 mins ago

KORB 170016Z AUTO 17009KT 10SM OVC110 04/M03 A2986 RMK AO2
Observed
Nov-17 @ 00:16 UTC
Wind
  • 170° at 9 KTS
Visibility
10 SM
Flight Rules
VFR
Cloud Levels
  • Overcast at 11,000' AGL
Temperature
C / 39°F
Dewpoint
-3°C / 27°F
Humidity
61%
Altimeter
29.86" Hg
Pressure
1011.22 hPa